PWSweather.com
Personal Weather Stations
Station Observations
HAJERN
Hajeren, HvittingfossNO 3647

HajerenHvittingfossNO 3647

Lat: 59.54314324, Lon: 9.95778703

Elevation: 1320

Station Type: Fine Ofset WS 1080

Latest ConditionsUpdated 7:30:02 PM GMT+01:01 Saturday, Aug 24, 2019
Currently Today's Max Today's Min Today's Average
Temperature 63.3°F17.4°C 78.8°F26.0°C 49.5°F9.7°C 63.7°F17.6°C
Dew Point 60.0°F15.6°C 72.9°F22.7°C 49.2°F9.6°C 60.1°F15.6°C
Winds 5.6 mph S9.0 kmh S 5.6 mph -9.0 kmh - - 2.7 mph 4.3 kmh
Wind Gusts 7.6 mph12.2 kmh 7.6 mph12.2 kmh - -
Humidity 89% 99% 72% 89%
Pressure 29.85 in1010.8 mb 29.88 in1011.9 mb 29.76 in1007.8 mb -
Hour Temp Dew Point Humidity Winds Wind Gusts Pressure Precip Precip Rate Daily Precip Total
07:30 PM 63.3°F17.4°C 60.0°F15.6°C 89% 5.6 mph S9.0 kmh S 7.6 mph12.2 kmh 29.85 in1010.8 mb 0.00 in0.0 mm 0.00 in0.0 mm 0.00 in0.0 mm
07:00 PM 65.7°F18.7°C 60.7°F15.9°C 84% 2.9 mph SSE4.7 kmh SSE 4.5 mph7.2 kmh 29.85 in1010.8 mb 0.00 in0.0 mm 0.00 in0.0 mm 0.00 in0.0 mm
06:30 PM 66.9°F19.4°C 60.6°F15.9°C 80% 3.7 mph ESE6.0 kmh ESE 6.9 mph11.1 kmh 29.84 in1010.5 mb 0.00 in0.0 mm 0.00 in0.0 mm 0.00 in0.0 mm
06:00 PM 71.1°F21.7°C 62.0°F16.7°C 73% 4.0 mph S6.4 kmh S 6.9 mph11.1 kmh 29.84 in1010.5 mb 0.00 in0.0 mm 0.00 in0.0 mm 0.00 in0.0 mm
05:30 PM 70.0°F21.1°C 62.5°F16.9°C 77% 5.1 mph SSE8.2 kmh SSE 7.6 mph12.2 kmh 29.84 in1010.5 mb 0.00 in0.0 mm 0.00 in0.0 mm 0.00 in0.0 mm
05:00 PM 71.4°F21.9°C 62.0°F16.7°C 72% 4.0 mph SE6.4 kmh SE 6.0 mph9.7 kmh 29.85 in1010.8 mb 0.00 in0.0 mm 0.00 in0.0 mm 0.00 in0.0 mm
04:30 PM 72.5°F22.5°C 63.0°F17.2°C 72% 3.4 mph SSE5.5 kmh SSE 6.0 mph9.7 kmh 29.86 in1011.2 mb 0.00 in0.0 mm 0.00 in0.0 mm 0.00 in0.0 mm
04:00 PM 71.6°F22.0°C 62.9°F17.2°C 74% 3.0 mph SE4.8 kmh SE 4.5 mph7.2 kmh 29.87 in1011.5 mb 0.00 in0.0 mm 0.00 in0.0 mm 0.00 in0.0 mm
03:30 PM 73.8°F23.2°C 68.0°F20.0°C 82% 3.6 mph SSE5.8 kmh SSE 6.9 mph11.1 kmh 29.87 in1011.5 mb 0.00 in0.0 mm 0.00 in0.0 mm 0.00 in0.0 mm
03:00 PM 73.6°F23.1°C 67.8°F19.9°C 82% 4.4 mph S7.1 kmh S 6.0 mph9.7 kmh 29.88 in1011.9 mb 0.00 in0.0 mm 0.00 in0.0 mm 0.00 in0.0 mm
02:30 PM 71.2°F21.8°C 65.5°F18.6°C 82% 4.5 mph E7.2 kmh E 6.9 mph11.1 kmh 29.88 in1011.9 mb 0.00 in0.0 mm 0.00 in0.0 mm 0.00 in0.0 mm
02:00 PM 71.8°F22.1°C 66.0°F18.9°C 82% 3.8 mph S6.1 kmh S 6.0 mph9.7 kmh 29.88 in1011.9 mb 0.00 in0.0 mm 0.00 in0.0 mm 0.00 in0.0 mm
01:30 PM 73.0°F22.8°C 67.3°F19.6°C 82% 4.7 mph S7.6 kmh S 6.9 mph11.1 kmh 29.88 in1011.9 mb 0.00 in0.0 mm 0.00 in0.0 mm 0.00 in0.0 mm
01:00 PM 73.9°F23.3°C 68.1°F20.1°C 82% 4.2 mph SSE6.8 kmh SSE 6.0 mph9.7 kmh 29.88 in1011.9 mb 0.00 in0.0 mm 0.00 in0.0 mm 0.00 in0.0 mm
12:30 PM 78.8°F26.0°C 72.9°F22.7°C 82% 4.0 mph S6.4 kmh S 6.9 mph11.1 kmh 29.88 in1011.9 mb 0.00 in0.0 mm 0.00 in0.0 mm 0.00 in0.0 mm
12:00 PM 75.6°F24.2°C 69.7°F20.9°C 82% 3.1 mph SSE5.0 kmh SSE 4.5 mph7.2 kmh 29.88 in1011.9 mb 0.00 in0.0 mm 0.00 in0.0 mm 0.00 in0.0 mm
11:30 AM 72.5°F22.5°C 66.7°F19.3°C 82% 3.3 mph SE5.3 kmh SE 6.9 mph11.1 kmh 29.87 in1011.5 mb 0.00 in0.0 mm 0.00 in0.0 mm 0.00 in0.0 mm
11:00 AM 77.7°F25.4°C 71.8°F22.1°C 82% 2.5 mph SW4.0 kmh SW 3.8 mph6.1 kmh 29.88 in1011.9 mb 0.00 in0.0 mm 0.00 in0.0 mm 0.00 in0.0 mm
10:30 AM 76.5°F24.7°C 70.6°F21.4°C 82% 3.2 mph SSW5.1 kmh SSW 4.5 mph7.2 kmh 29.87 in1011.5 mb 0.00 in0.0 mm 0.00 in0.0 mm 0.00 in0.0 mm
10:00 AM 75.0°F23.9°C 69.2°F20.7°C 82% 4.2 mph SSW6.8 kmh SSW 6.9 mph11.1 kmh 29.87 in1011.5 mb 0.00 in0.0 mm 0.00 in0.0 mm 0.00 in0.0 mm
09:30 AM 74.5°F23.6°C 68.7°F20.4°C 82% 3.0 mph S4.8 kmh S 5.4 mph8.7 kmh 29.87 in1011.5 mb 0.00 in0.0 mm 0.00 in0.0 mm 0.00 in0.0 mm
09:00 AM 70.7°F21.5°C 65.0°F18.3°C 82% 1.9 mph SE3.1 kmh SE 3.1 mph5.0 kmh 29.86 in1011.2 mb 0.00 in0.0 mm 0.00 in0.0 mm 0.00 in0.0 mm
08:30 AM 61.7°F16.5°C 61.4°F16.3°C 99% 1.4 mph N2.3 kmh N 2.2 mph3.5 kmh 29.85 in1010.8 mb 0.00 in0.0 mm 0.00 in0.0 mm 0.00 in0.0 mm
08:00 AM 59.5°F15.3°C 59.3°F15.2°C 99% 0.9 mph NNE1.4 kmh NNE 2.2 mph3.5 kmh 29.85 in1010.8 mb 0.00 in0.0 mm 0.00 in0.0 mm 0.00 in0.0 mm
07:30 AM 57.7°F14.3°C 57.5°F14.2°C 99% 1.3 mph NE2.1 kmh NE 2.2 mph3.5 kmh 29.84 in1010.5 mb 0.00 in0.0 mm 0.00 in0.0 mm 0.00 in0.0 mm
07:00 AM 54.0°F12.2°C 53.7°F12.1°C 99% 0.1 mph N0.2 kmh N 2.2 mph3.5 kmh 29.84 in1010.5 mb 0.00 in0.0 mm 0.00 in0.0 mm 0.00 in0.0 mm
06:30 AM 53.4°F11.9°C 53.2°F11.8°C 99% 1.1 mph E1.8 kmh E 2.2 mph3.5 kmh 29.84 in1010.5 mb 0.00 in0.0 mm 0.00 in0.0 mm 0.00 in0.0 mm
06:00 AM 50.5°F10.3°C 50.3°F10.2°C 99% 2.0 mph E3.2 kmh E 3.8 mph6.1 kmh 29.84 in1010.5 mb 0.00 in0.0 mm 0.00 in0.0 mm 0.00 in0.0 mm
05:30 AM 50.2°F10.1°C 49.9°F9.9°C 99% 1.1 mph E1.8 kmh E 3.1 mph5.0 kmh 29.84 in1010.5 mb 0.00 in0.0 mm 0.00 in0.0 mm 0.00 in0.0 mm
05:00 AM 49.5°F9.7°C 49.2°F9.6°C 99% Calm Calm -- 29.84 in1010.5 mb 0.00 in0.0 mm 0.00 in0.0 mm 0.00 in0.0 mm
04:30 AM 49.8°F9.9°C 49.6°F9.8°C 99% 2.2 mph E3.5 kmh E 3.1 mph5.0 kmh 29.83 in1010.2 mb 0.00 in0.0 mm 0.00 in0.0 mm 0.00 in0.0 mm
04:00 AM 50.5°F10.3°C 50.3°F10.2°C 99% 1.8 mph E2.9 kmh E 3.1 mph5.0 kmh 29.82 in1009.8 mb 0.00 in0.0 mm 0.00 in0.0 mm 0.00 in0.0 mm
03:30 AM 50.5°F10.3°C 50.3°F10.2°C 99% 1.0 mph E1.6 kmh E 2.2 mph3.5 kmh 29.81 in1009.5 mb 0.00 in0.0 mm 0.00 in0.0 mm 0.00 in0.0 mm
03:00 AM 50.9°F10.5°C 50.6°F10.3°C 99% 0.7 mph E1.1 kmh E 2.2 mph3.5 kmh 29.81 in1009.5 mb 0.00 in0.0 mm 0.00 in0.0 mm 0.00 in0.0 mm
02:30 AM 51.1°F10.6°C 50.8°F10.4°C 99% Calm Calm -- 29.80 in1009.1 mb 0.00 in0.0 mm 0.00 in0.0 mm 0.00 in0.0 mm
02:00 AM 51.6°F10.9°C 51.4°F10.8°C 99% 2.1 mph E3.4 kmh E 3.1 mph5.0 kmh 29.80 in1009.1 mb 0.00 in0.0 mm 0.00 in0.0 mm 0.00 in0.0 mm
01:30 AM 52.5°F11.4°C 52.3°F11.3°C 99% 2.4 mph E3.9 kmh E 4.5 mph7.2 kmh 29.78 in1008.5 mb 0.00 in0.0 mm 0.00 in0.0 mm 0.00 in0.0 mm
01:00 AM 54.0°F12.2°C 53.7°F12.1°C 99% 2.5 mph E4.0 kmh E 3.8 mph6.1 kmh 29.78 in1008.5 mb 0.00 in0.0 mm 0.00 in0.0 mm 0.00 in0.0 mm
12:30 AM 56.3°F13.5°C 54.6°F12.6°C 94% 5.2 mph W8.4 kmh W 7.6 mph12.2 kmh 29.77 in1008.1 mb 0.00 in0.0 mm 0.00 in0.0 mm 0.00 in0.0 mm
12:00 AM 53.8°F12.1°C 53.5°F11.9°C 99% 0.7 mph SW1.1 kmh SW 4.5 mph7.2 kmh 29.76 in1007.8 mb 0.00 in0.0 mm 0.00 in0.0 mm 0.00 in0.0 mm